Time;durP1;ratioP1;P1;durP2;ratioP2;P2;SDS_P1;SDS_P2;PMS_P1;PMS_P2;Temp;Humidity;BMP_temperature;BMP_pressure;BME280_temperature;BME280_humidity;BME280_pressure;Samples;Min_cycle;Max_cycle;Signal;HPM_P1;HPM_P2
2022/09/06 00:00:12;;;;;;;20.33;18.53;;;16.50;99.90;;;;;;6272573;22;20838;-52
2022/09/06 00:02:37;;;;;;;21.13;19.03;;;16.50;99.90;;;;;;6273147;22;20146;-50
2022/09/06 00:05:04;;;;;;;21.00;18.93;;;16.50;99.90;;;;;;6272408;22;20754;-51
2022/09/06 00:07:29;;;;;;;20.37;18.47;;;16.50;99.90;;;;;;6272220;22;20148;-52
2022/09/06 00:09:55;;;;;;;20.60;18.80;;;16.50;99.90;;;;;;6273055;22;20355;-53
2022/09/06 00:12:21;;;;;;;20.30;18.20;;;16.50;99.90;;;;;;6272982;22;20167;-54
2022/09/06 00:14:47;;;;;;;20.47;18.67;;;16.40;99.90;;;;;;6272419;22;20372;-52
2022/09/06 00:17:13;;;;;;;19.70;17.80;;;16.40;99.90;;;;;;6272635;22;20435;-53
2022/09/06 00:19:38;;;;;;;19.70;18.00;;;16.40;99.90;;;;;;6271295;22;20167;-52
2022/09/06 00:22:04;;;;;;;20.30;18.40;;;16.40;99.90;;;;;;6272298;22;20587;-52
2022/09/06 00:24:29;;;;;;;20.10;18.10;;;16.40;99.90;;;;;;6271812;22;20579;-51
2022/09/06 00:26:55;;;;;;;19.63;17.83;;;16.40;99.90;;;;;;6271564;22;20223;-51
2022/09/06 00:29:20;;;;;;;20.80;18.90;;;16.40;99.90;;;;;;6270665;22;20191;-49
2022/09/06 00:31:46;;;;;;;20.60;18.80;;;16.40;99.90;;;;;;6272708;22;20176;-53
2022/09/06 00:34:11;;;;;;;20.27;18.47;;;16.30;99.90;;;;;;6272238;22;20610;-53
2022/09/06 00:36:37;;;;;;;19.80;18.00;;;16.30;99.90;;;;;;6272387;22;20476;-52
2022/09/06 00:39:03;;;;;;;19.93;18.13;;;16.30;99.90;;;;;;6272742;22;20560;-48
2022/09/06 00:41:28;;;;;;;20.43;18.53;;;16.40;99.90;;;;;;6272600;22;20158;-52
2022/09/06 00:43:54;;;;;;;19.23;17.43;;;16.40;99.90;;;;;;6272216;22;20733;-50
2022/09/06 00:46:24;;;;;;;19.50;17.80;;;16.30;99.90;;;;;;6272266;22;20156;-54
2022/09/06 00:48:55;;;;;;;19.43;17.57;;;16.40;99.90;;;;;;6272247;22;20144;-52
2022/09/06 00:51:23;;;;;;;19.00;17.30;;;16.40;99.90;;;;;;6272041;22;20418;-50
2022/09/06 00:53:49;;;;;;;19.17;17.47;;;16.40;99.90;;;;;;6272608;22;20835;-50
2022/09/06 00:56:15;;;;;;;19.00;17.40;;;16.30;99.90;;;;;;6272544;22;20390;-51
2022/09/06 00:58:40;;;;;;;19.17;17.47;;;16.30;99.90;;;;;;6272185;22;20367;-54
2022/09/06 01:01:06;;;;;;;19.00;17.10;;;16.30;99.90;;;;;;6272400;22;20203;-52
2022/09/06 01:03:33;;;;;;;19.73;17.93;;;16.20;99.90;;;;;;6272385;22;21098;-48
2022/09/06 01:06:17;;;;;;;18.87;17.17;;;16.30;99.90;;;;;;6271517;22;21193;-48
2022/09/06 01:09:19;;;;;;;18.33;16.83;;;16.30;99.90;;;;;;6272695;22;21213;-50
2022/09/06 01:11:50;;;;;;;17.87;16.27;;;16.20;99.90;;;;;;6271957;22;20418;-49
2022/09/06 01:14:38;;;;;;;19.17;17.50;;;16.20;99.90;;;;;;6271635;22;20397;-51
2022/09/06 01:17:27;;;;;;;18.73;16.93;;;16.20;99.90;;;;;;6214481;22;20435;-51
2022/09/06 01:20:20;;;;;;;18.77;16.77;;;16.20;99.90;;;;;;6272439;22;20387;-54
2022/09/06 01:23:13;;;;;;;18.13;16.47;;;16.20;99.90;;;;;;6271547;22;20375;-46
2022/09/06 01:26:07;;;;;;;18.27;16.57;;;16.20;99.90;;;;;;6272259;22;20374;-50
2022/09/06 01:28:36;;;;;;;18.20;16.60;;;16.20;99.90;;;;;;6271248;22;20386;-47
2022/09/06 01:31:10;;;;;;;17.73;16.17;;;16.10;99.90;;;;;;6271515;22;20418;-50
2022/09/06 01:33:48;;;;;;;17.73;16.23;;;16.10;99.90;;;;;;6271919;22;20363;-49
2022/09/06 01:36:18;;;;;;;17.07;15.57;;;16.10;99.90;;;;;;6271838;22;20682;-48
2022/09/06 01:38:44;;;;;;;17.80;16.10;;;16.10;99.60;;;;;;6272093;22;20362;-52
2022/09/06 01:41:10;;;;;;;17.67;16.17;;;16.10;98.70;;;;;;6271376;22;20454;-51
2022/09/06 01:43:39;;;;;;;17.13;15.53;;;16.10;99.90;;;;;;6271527;22;20155;-53
2022/09/06 01:46:32;;;;;;;17.73;16.23;;;16.10;98.30;;;;;;6271558;22;20365;-52
2022/09/06 01:49:06;;;;;;;17.50;15.90;;;16.10;96.10;;;;;;6271837;22;20459;-52
2022/09/06 01:51:40;;;;;;;18.10;16.50;;;16.00;96.10;;;;;;6270388;22;20423;-53
2022/09/06 01:54:09;;;;;;;17.60;15.93;;;16.00;96.40;;;;;;6271846;22;20378;-49
2022/09/06 01:56:45;;;;;;;17.27;15.83;;;15.90;97.90;;;;;;6270828;22;21055;-48
2022/09/06 01:59:17;;;;;;;18.17;16.50;;;15.90;98.80;;;;;;6271653;22;20366;-51
2022/09/06 02:01:48;;;;;;;16.80;15.40;;;15.90;98.60;;;;;;6271331;22;20455;-51
2022/09/06 02:04:23;;;;;;;18.20;16.30;;;15.90;98.30;;;;;;6271058;22;20374;-51
2022/09/06 02:06:57;;;;;;;16.83;15.43;;;15.90;97.80;;;;;;6271573;22;20719;-51
2022/09/06 02:09:25;;;;;;;17.63;16.03;;;15.90;97.40;;;;;;6270543;22;20363;-50
2022/09/06 02:11:56;;;;;;;17.73;16.20;;;16.00;93.70;;;;;;6271381;22;20405;-47
2022/09/06 02:14:30;;;;;;;17.53;15.93;;;16.00;92.70;;;;;;6271661;22;20802;-52
2022/09/06 02:16:57;;;;;;;17.83;16.33;;;16.00;91.40;;;;;;6271127;22;20418;-52
2022/09/06 02:19:42;;;;;;;16.60;15.10;;;16.00;91.00;;;;;;6271526;22;20370;-49
2022/09/06 02:22:10;;;;;;;20.67;15.90;;;16.00;88.10;;;;;;6272112;22;21215;-52
2022/09/06 02:24:38;;;;;;;17.40;15.83;;;16.00;87.90;;;;;;6271061;22;20390;-53
2022/09/06 02:27:04;;;;;;;17.33;15.53;;;16.00;83.00;;;;;;6271252;22;20453;-50
2022/09/06 02:29:29;;;;;;;15.43;14.13;;;16.00;82.50;;;;;;6269455;22;20856;-51
2022/09/06 02:32:02;;;;;;;16.67;15.20;;;16.00;82.30;;;;;;6271404;22;20176;-52
2022/09/06 02:34:28;;;;;;;17.00;15.50;;;16.00;78.40;;;;;;6270894;22;20426;-53
2022/09/06 02:36:54;;;;;;;17.50;15.80;;;16.00;78.10;;;;;;6271756;22;20371;-51
2022/09/06 02:39:20;;;;;;;16.87;15.17;;;16.10;75.30;;;;;;6270534;22;20399;-54
2022/09/06 02:41:47;;;;;;;17.07;15.67;;;16.10;73.00;;;;;;6271374;22;20724;-50
2022/09/06 02:44:13;;;;;;;16.80;15.30;;;16.10;68.80;;;;;;6271630;22;20156;-53
2022/09/06 02:46:39;;;;;;;15.97;14.53;;;16.00;71.00;;;;;;6271186;22;20372;-53
2022/09/06 02:49:05;;;;;;;16.47;15.07;;;16.10;73.10;;;;;;6271464;22;20375;-53
2022/09/06 02:51:38;;;;;;;16.23;14.83;;;16.10;67.80;;;;;;6271161;22;20429;-51
2022/09/06 02:54:05;;;;;;;17.27;15.67;;;16.00;70.20;;;;;;6271221;22;20171;-55
2022/09/06 02:56:32;;;;;;;16.53;15.17;;;16.10;68.00;;;;;;6270201;22;20364;-51
2022/09/06 02:58:58;;;;;;;17.07;15.60;;;16.10;64.70;;;;;;6271092;22;20454;-53
2022/09/06 03:01:24;;;;;;;16.20;14.80;;;16.10;63.90;;;;;;6270634;22;20383;-51
2022/09/06 03:03:50;;;;;;;15.93;14.63;;;16.00;64.40;;;;;;6271415;22;20385;-53
2022/09/06 03:06:15;;;;;;;17.30;15.60;;;16.00;63.70;;;;;;6271525;22;20144;-54
2022/09/06 03:08:41;;;;;;;17.20;15.70;;;16.10;60.50;;;;;;6271984;22;20155;-53
2022/09/06 03:11:06;;;;;;;15.80;14.40;;;16.10;57.50;;;;;;6271203;22;20175;-54
2022/09/06 03:13:32;;;;;;;15.37;13.97;;;16.10;57.80;;;;;;6271404;22;20155;-50
2022/09/06 03:15:58;;;;;;;16.63;15.20;;;16.00;55.70;;;;;;6271586;22;20148;-54
2022/09/06 03:18:26;;;;;;;16.80;15.33;;;16.00;56.20;;;;;;6271188;22;20274;-46
2022/09/06 03:20:53;;;;;;;16.10;14.70;;;15.90;58.80;;;;;;6270884;22;20374;-47
2022/09/06 03:23:20;;;;;;;16.53;15.13;;;15.90;60.20;;;;;;6270416;22;20359;-51
2022/09/06 03:25:46;;;;;;;16.43;14.93;;;15.90;61.90;;;;;;6271023;22;20393;-54
2022/09/06 03:28:12;;;;;;;16.73;15.27;;;15.80;65.40;;;;;;6271663;22;20814;-48
2022/09/06 03:30:39;;;;;;;17.40;15.80;;;15.70;68.70;;;;;;6273262;22;20505;-53
2022/09/06 03:33:04;;;;;;;16.73;15.07;;;15.70;73.80;;;;;;6273340;22;20366;-48
2022/09/06 03:35:30;;;;;;;16.73;15.30;;;15.60;76.20;;;;;;6272849;22;20696;-53
2022/09/06 03:37:56;;;;;;;17.27;15.77;;;15.60;80.30;;;;;;6273696;22;20231;-51
2022/09/06 03:40:22;;;;;;;17.87;16.30;;;15.50;84.50;;;;;;6273138;22;20386;-53
2022/09/06 03:42:47;;;;;;;17.03;15.53;;;15.50;90.30;;;;;;6273631;22;20136;-50
2022/09/06 03:45:13;;;;;;;17.77;16.10;;;15.50;93.10;;;;;;6273059;22;20152;-53
2022/09/06 03:47:38;;;;;;;16.57;15.17;;;15.40;96.10;;;;;;6273222;22;20136;-49
2022/09/06 03:50:05;;;;;;;17.43;15.87;;;15.40;96.90;;;;;;6273253;22;20140;-47
2022/09/06 03:52:31;;;;;;;17.67;16.00;;;15.40;97.60;;;;;;6273257;22;20172;-50
2022/09/06 03:54:56;;;;;;;17.40;15.90;;;15.30;99.90;;;;;;6272431;22;20406;-49
2022/09/06 03:57:22;;;;;;;17.73;16.10;;;15.30;99.90;;;;;;6273032;22;20150;-54
2022/09/06 03:59:48;;;;;;;19.60;17.80;;;15.20;99.90;;;;;;6273190;22;20175;-50
2022/09/06 04:02:13;;;;;;;19.37;17.57;;;15.20;99.90;;;;;;6272781;22;20393;-51
2022/09/06 04:04:39;;;;;;;19.03;17.20;;;15.20;99.90;;;;;;6272814;22;20143;-56
2022/09/06 04:07:04;;;;;;;18.57;16.80;;;15.20;99.90;;;;;;6272819;22;20216;-49
2022/09/06 04:09:30;;;;;;;19.70;17.80;;;15.10;99.90;;;;;;6271507;22;20158;-48
2022/09/06 04:11:56;;;;;;;21.73;19.70;;;15.10;99.90;;;;;;6272754;22;20176;-52
2022/09/06 04:14:21;;;;;;;20.60;18.67;;;15.10;99.90;;;;;;6273168;22;20139;-48
2022/09/06 04:16:48;;;;;;;21.00;19.10;;;15.10;99.90;;;;;;6272573;22;20148;-47
2022/09/06 04:19:13;;;;;;;22.30;20.10;;;15.10;99.90;;;;;;6272896;22;20135;-53
2022/09/06 04:21:39;;;;;;;22.73;19.60;;;15.10;99.90;;;;;;6272958;22;20369;-50
2022/09/06 04:24:04;;;;;;;21.97;19.87;;;15.00;99.90;;;;;;6272903;22;20253;-50
2022/09/06 04:26:30;;;;;;;21.60;19.57;;;15.00;99.90;;;;;;6272167;22;20162;-51
2022/09/06 04:28:55;;;;;;;22.37;20.07;;;15.00;99.90;;;;;;6272944;22;20507;-50
2022/09/06 04:31:21;;;;;;;24.00;21.60;;;15.00;99.90;;;;;;6272597;22;20568;-49
2022/09/06 04:33:47;;;;;;;21.77;19.77;;;15.00;99.90;;;;;;6272600;22;20151;-48
2022/09/06 04:36:12;;;;;;;23.10;20.03;;;15.00;99.90;;;;;;6272752;22;20143;-49
2022/09/06 04:38:42;;;;;;;51.23;23.57;;;15.00;99.90;;;;;;6272515;22;20142;-53
2022/09/06 04:41:10;;;;;;;22.00;19.90;;;15.00;99.90;;;;;;6272205;22;20165;-49
2022/09/06 04:43:36;;;;;;;24.87;22.20;;;15.00;99.90;;;;;;6272935;22;20460;-55
2022/09/06 04:46:05;;;;;;;33.90;23.27;;;15.00;99.90;;;;;;6272860;22;20405;-47
2022/09/06 04:48:31;;;;;;;23.13;20.80;;;15.10;99.90;;;;;;6272719;22;20156;-53
2022/09/06 04:50:56;;;;;;;23.63;19.87;;;15.10;99.90;;;;;;6272413;22;20418;-47
2022/09/06 04:53:22;;;;;;;22.10;19.90;;;15.10;99.90;;;;;;6272589;22;20217;-49
2022/09/06 04:55:48;;;;;;;23.50;21.20;;;15.10;99.90;;;;;;6271813;22;20190;-49
2022/09/06 04:58:13;;;;;;;22.93;20.50;;;15.20;99.90;;;;;;6272537;22;20150;-53
2022/09/06 05:00:41;;;;;;;22.77;20.57;;;15.20;99.90;;;;;;6272137;22;20147;-49
2022/09/06 05:03:06;;;;;;;21.77;19.67;;;15.20;99.90;;;;;;6272500;22;20554;-52
2022/09/06 05:05:32;;;;;;;20.80;18.90;;;15.30;99.90;;;;;;6272209;22;20485;-50
2022/09/06 05:07:57;;;;;;;23.63;21.40;;;15.30;99.90;;;;;;6272524;22;20150;-49
2022/09/06 05:10:23;;;;;;;22.33;20.30;;;15.40;99.90;;;;;;6272449;22;20153;-49
2022/09/06 05:12:51;;;;;;;23.10;20.90;;;15.50;99.90;;;;;;6272440;22;20144;-52
2022/09/06 05:15:17;;;;;;;22.87;20.67;;;15.50;99.90;;;;;;6272639;22;20361;-49
2022/09/06 05:17:43;;;;;;;21.13;19.30;;;15.70;99.90;;;;;;6272330;22;20426;-49
2022/09/06 05:20:10;;;;;;;23.33;21.20;;;15.80;99.90;;;;;;6272311;22;20799;-53
2022/09/06 05:22:36;;;;;;;20.77;18.87;;;15.80;99.90;;;;;;6271882;22;20590;-49
2022/09/06 05:25:01;;;;;;;21.80;19.73;;;15.80;99.90;;;;;;6271854;22;20363;-54
2022/09/06 05:27:27;;;;;;;19.67;17.93;;;15.90;99.90;;;;;;6272405;22;20471;-52
2022/09/06 05:29:52;;;;;;;20.03;18.13;;;16.00;99.90;;;;;;6272101;22;20170;-54
2022/09/06 05:32:18;;;;;;;21.00;18.87;;;16.10;99.90;;;;;;6272069;22;20164;-51
2022/09/06 05:34:43;;;;;;;20.40;18.60;;;16.30;99.90;;;;;;6272136;22;20151;-50
2022/09/06 05:37:09;;;;;;;19.50;17.50;;;16.50;99.90;;;;;;6271945;22;20152;-51
2022/09/06 05:39:35;;;;;;;19.40;17.70;;;16.60;99.90;;;;;;6272438;22;20147;-48
2022/09/06 05:42:05;;;;;;;19.20;17.33;;;16.70;99.90;;;;;;6271871;22;20228;-49
2022/09/06 05:44:34;;;;;;;18.43;16.63;;;16.90;97.30;;;;;;6272720;22;20149;-50
2022/09/06 05:47:00;;;;;;;19.40;17.70;;;16.90;96.20;;;;;;6272087;22;20463;-47
2022/09/06 05:49:28;;;;;;;17.13;15.40;;;17.10;91.50;;;;;;6271969;22;20761;-48
2022/09/06 05:51:53;;;;;;;16.30;13.93;;;17.20;65.50;;;;;;6271659;22;20464;-48
2022/09/06 05:54:19;;;;;;;14.33;13.13;;;17.40;39.90;;;;;;6271544;22;21045;-53
2022/09/06 05:56:45;;;;;;;14.53;13.33;;;17.50;3.50;;;;;;6272031;22;20653;-51
2022/09/06 05:59:10;;;;;;;13.20;12.03;;;17.70;1.00;;;;;;6272179;22;20224;-50
2022/09/06 06:01:36;;;;;;;13.27;12.07;;;17.90;1.00;;;;;;6271818;22;20137;-49
2022/09/06 06:04:04;;;;;;;14.70;12.90;;;18.00;1.00;;;;;;6271473;22;20358;-52
2022/09/06 06:06:32;;;;;;;12.93;11.83;;;18.10;1.00;;;;;;6271869;22;20145;-48
2022/09/06 06:08:58;;;;;;;12.20;11.17;;;18.20;1.00;;;;;;6272097;22;20372;-49
2022/09/06 06:11:25;;;;;;;12.77;11.73;;;18.30;1.00;;;;;;6272074;22;20415;-51
2022/09/06 06:13:51;;;;;;;13.07;11.87;;;18.40;1.00;;;;;;6272187;22;20396;-51
2022/09/06 06:16:19;;;;;;;12.00;11.00;;;18.50;1.00;;;;;;6271882;22;20431;-51
2022/09/06 06:18:45;;;;;;;13.20;12.10;;;18.70;1.00;;;;;;6271847;22;20197;-47
2022/09/06 06:21:19;;;;;;;12.47;11.47;;;18.80;1.00;;;;;;6271379;22;20366;-50
2022/09/06 06:23:48;;;;;;;13.57;12.47;;;18.90;1.00;;;;;;6267623;22;20142;-50
2022/09/06 06:26:13;;;;;;;12.90;11.70;;;19.10;1.00;;;;;;6262521;22;20414;-53
2022/09/06 06:28:39;;;;;;;12.93;11.90;;;19.20;1.00;;;;;;6262747;22;20370;-52
2022/09/06 06:31:07;;;;;;;13.37;12.27;;;19.40;1.00;;;;;;6262383;22;20180;-52
2022/09/06 06:33:35;;;;;;;13.57;12.40;;;19.60;1.00;;;;;;6262458;22;20567;-47
2022/09/06 06:36:03;;;;;;;12.80;11.80;;;19.80;99.90;;;;;;6262321;22;20432;-52
2022/09/06 06:38:33;;;;;;;13.23;12.13;;;19.80;94.30;;;;;;6263082;22;20371;-50
2022/09/06 06:40:59;;;;;;;12.60;11.70;;;20.00;1.00;;;;;;6272286;22;20713;-49
2022/09/06 06:43:25;;;;;;;12.53;11.63;;;20.10;34.30;;;;;;6271885;22;20398;-52
2022/09/06 06:45:51;;;;;;;12.90;11.90;;;20.20;99.90;;;;;;6272376;22;21117;-52
2022/09/06 06:48:17;;;;;;;12.67;11.57;;;20.30;99.90;;;;;;6271460;22;20398;-48
2022/09/06 06:50:42;;;;;;;13.00;11.90;;;20.50;99.90;;;;;;6270472;22;20177;-51
2022/09/06 06:53:08;;;;;;;12.17;11.27;;;20.50;99.90;;;;;;6270270;22;20540;-52
2022/09/06 06:55:34;;;;;;;12.17;11.27;;;20.60;99.90;;;;;;6271740;22;20206;-49
2022/09/06 06:58:00;;;;;;;13.30;12.27;;;20.70;37.60;;;;;;6271636;22;20141;-52
2022/09/06 07:00:26;;;;;;;12.43;11.43;;;20.80;1.00;;;;;;6261230;22;20502;-52
2022/09/06 07:02:52;;;;;;;12.00;11.00;;;21.00;99.90;;;;;;6262491;22;20169;-52
2022/09/06 07:05:18;;;;;;;12.80;11.80;;;21.00;99.90;;;;;;6264501;22;20222;-51
2022/09/06 07:07:43;;;;;;;13.00;12.00;;;21.00;1.00;;;;;;6264239;22;20402;-53
2022/09/06 07:10:09;;;;;;;13.13;12.13;;;21.00;1.00;;;;;;6264913;22;20144;-52
2022/09/06 07:12:35;;;;;;;12.00;11.20;;;21.00;99.90;;;;;;6264466;22;20299;-52
2022/09/06 07:15:01;;;;;;;12.17;11.27;;;21.00;14.00;;;;;;6264551;22;21010;-51
2022/09/06 07:17:27;;;;;;;12.43;11.53;;;21.10;99.90;;;;;;6263912;22;20193;-49
2022/09/06 07:19:53;;;;;;;12.53;11.63;;;21.20;1.00;;;;;;6263874;22;20445;-50
2022/09/06 07:22:19;;;;;;;12.70;11.70;;;21.40;99.90;;;;;;6264041;22;21044;-52
2022/09/06 07:24:45;;;;;;;12.93;11.93;;;21.50;85.00;;;;;;6264354;22;20455;-51
2022/09/06 07:27:11;;;;;;;12.83;11.73;;;21.50;99.90;;;;;;6264324;22;20153;-54
2022/09/06 07:29:36;;;;;;;12.37;11.47;;;21.50;1.00;;;;;;6264089;22;21088;-51
2022/09/06 07:32:02;;;;;;;12.60;11.60;;;21.50;1.00;;;;;;6264244;22;20970;-54
2022/09/06 07:34:28;;;;;;;13.30;12.20;;;21.70;1.00;;;;;;6264192;22;20603;-51
2022/09/06 07:36:54;;;;;;;13.30;12.30;;;21.60;1.00;;;;;;6264107;22;20166;-51
2022/09/06 07:39:21;;;;;;;12.33;11.33;;;21.60;99.90;;;;;;6264102;22;20623;-53
2022/09/06 07:41:46;;;;;;;12.63;11.73;;;21.80;78.70;;;;;;6263914;22;20386;-47
2022/09/06 07:44:12;;;;;;;13.03;12.00;;;21.90;1.00;;;;;;6263646;22;20874;-49
2022/09/06 07:46:37;;;;;;;12.70;11.80;;;21.80;1.00;;;;;;6264102;22;20164;-49
2022/09/06 07:49:04;;;;;;;12.00;11.10;;;21.80;1.00;;;;;;6263205;22;20157;-51
2022/09/06 07:51:29;;;;;;;12.20;11.40;;;21.90;1.00;;;;;;6261090;22;20180;-54
2022/09/06 07:53:55;;;;;;;12.70;11.80;;;22.00;1.00;;;;;;6263624;22;20360;-51
2022/09/06 07:56:21;;;;;;;11.87;11.07;;;22.00;99.90;;;;;;6264077;22;20176;-51
2022/09/06 07:58:47;;;;;;;13.37;12.40;;;22.00;99.90;;;;;;6263887;22;20560;-49
2022/09/06 08:01:29;;;;;;;12.80;11.90;;;22.00;99.90;;;;;;6264021;22;20376;-49
2022/09/06 08:04:00;;;;;;;12.47;11.37;;;22.10;1.00;;;;;;6263676;22;20374;-52
2022/09/06 08:06:28;;;;;;;12.17;11.17;;;22.20;1.00;;;;;;6263877;22;20378;-52
2022/09/06 08:08:54;;;;;;;12.83;11.93;;;22.20;1.00;;;;;;6263753;22;20375;-53
2022/09/06 08:11:21;;;;;;;12.90;11.90;;;22.10;99.90;;;;;;6263606;22;20461;-49
2022/09/06 08:13:53;;;;;;;13.80;12.50;;;22.20;1.00;;;;;;6263566;22;20352;-48
2022/09/06 08:16:19;;;;;;;13.90;12.63;;;22.30;41.20;;;;;;6263695;22;20371;-50
2022/09/06 08:18:52;;;;;;;14.30;13.20;;;22.30;1.00;;;;;;6263789;22;20513;-49
2022/09/06 08:21:18;;;;;;;15.63;14.23;;;22.40;99.90;;;;;;6263078;22;20414;-50
2022/09/06 08:23:55;;;;;;;13.07;11.97;;;22.50;1.00;;;;;;6263738;22;20442;-51
2022/09/06 08:26:22;;;;;;;13.77;12.67;;;22.50;1.00;;;;;;6263548;22;20367;-51
2022/09/06 08:28:59;;;;;;;12.50;11.40;;;22.70;1.00;;;;;;6263321;22;20462;-49
2022/09/06 08:31:26;;;;;;;12.67;11.67;;;22.80;99.90;;;;;;6266521;22;20435;-47
2022/09/06 08:33:53;;;;;;;12.43;11.53;;;22.90;99.90;;;;;;6272016;22;20425;-54
2022/09/06 08:36:18;;;;;;;13.00;12.00;;;23.10;1.00;;;;;;6273047;22;20368;-54
2022/09/06 08:38:47;;;;;;;12.33;11.27;;;23.10;1.00;;;;;;6272529;22;20844;-51
2022/09/06 08:41:15;;;;;;;12.93;12.03;;;23.20;1.00;;;;;;6272914;22;20567;-50
2022/09/06 08:43:56;;;;;;;12.37;11.50;;;23.40;99.90;;;;;;6272552;22;20376;-53
2022/09/06 08:46:47;;;;;;;12.57;11.40;;;23.30;99.90;;;;;;6272767;22;20351;-50
2022/09/06 08:49:12;;;;;;;12.33;11.40;;;23.30;99.90;;;;;;6272669;22;20454;-54
2022/09/06 08:52:01;;;;;;;12.43;11.53;;;23.20;99.90;;;;;;6272599;22;21075;-49
2022/09/06 08:54:38;;;;;;;13.00;12.20;;;23.20;99.90;;;;;;6272386;22;20145;-57
2022/09/06 08:57:24;;;;;;;11.30;10.50;;;23.30;99.90;;;;;;6272606;22;20358;-49
2022/09/06 08:59:56;;;;;;;12.93;11.70;;;23.40;99.90;;;;;;6272088;22;20699;-52
2022/09/06 09:02:21;;;;;;;12.33;11.33;;;23.70;99.90;;;;;;6272561;22;20355;-50
2022/09/06 09:04:54;;;;;;;12.60;11.80;;;24.20;99.90;;;;;;6272689;22;20367;-50
2022/09/06 09:07:38;;;;;;;12.70;11.80;;;24.90;30.40;;;;;;6272626;22;20143;-52
2022/09/06 09:10:20;;;;;;;11.10;10.17;;;25.30;1.00;;;;;;6272512;22;20360;-52
2022/09/06 09:12:47;;;;;;;12.27;11.27;;;25.90;1.00;;;;;;6270881;22;20427;-51
2022/09/06 09:15:16;;;;;;;12.13;11.33;;;26.30;1.00;;;;;;6272409;22;20380;-52
2022/09/06 09:17:42;;;;;;;12.90;11.73;;;26.50;1.00;;;;;;6272295;22;20481;-50
2022/09/06 09:20:09;;;;;;;12.10;11.40;;;26.30;1.00;;;;;;6270678;22;20378;-47
2022/09/06 09:22:35;;;;;;;12.63;11.83;;;26.40;1.00;;;;;;6272485;22;20426;-55
2022/09/06 09:25:02;;;;;;;11.83;11.13;;;26.30;1.00;;;;;;6272464;22;20364;-52
2022/09/06 09:27:28;;;;;;;11.53;10.77;;;26.30;99.90;;;;;;6272181;22;20375;-51
2022/09/06 09:29:54;;;;;;;13.03;12.13;;;25.90;1.00;;;;;;6271779;22;20386;-53
2022/09/06 09:32:41;;;;;;;11.20;10.30;;;25.60;1.00;;;;;;6272201;22;20407;-54
2022/09/06 09:35:17;;;;;;;12.67;11.73;;;25.60;1.00;;;;;;6272378;22;20133;-51
2022/09/06 09:37:43;;;;;;;11.83;11.13;;;25.60;1.00;;;;;;6272184;22;20378;-52
2022/09/06 09:40:51;;;;;;;12.40;11.50;;;25.50;99.90;;;;;;6272379;22;20356;-51
2022/09/06 09:43:38;;;;;;;13.30;12.40;;;25.20;99.90;;;;;;6256386;22;20391;-51
2022/09/06 09:46:22;;;;;;;12.63;11.73;;;24.90;1.00;;;;;;6271990;22;20366;-47
2022/09/06 09:49:11;;;;;;;12.60;11.70;;;24.50;1.00;;;;;;6272136;22;20366;-51
2022/09/06 09:51:41;;;;;;;12.40;11.60;;;24.50;1.00;;;;;;6271911;22;20403;-51
2022/09/06 09:54:09;;;;;;;13.07;12.17;;;24.60;1.00;;;;;;6268015;22;21481;-53
2022/09/06 09:56:53;;;;;;;12.90;11.90;;;24.70;1.00;;;;;;6262923;22;20794;-50
2022/09/06 09:59:23;;;;;;;11.77;10.87;;;24.50;1.00;;;;;;6262106;22;20360;-50
2022/09/06 10:02:00;;;;;;;12.10;11.20;;;24.40;1.00;;;;;;6262392;22;20846;-49
2022/09/06 10:04:51;;;;;;;12.03;11.23;;;24.50;1.00;;;;;;6262630;22;20370;-50
2022/09/06 10:07:24;;;;;;;11.13;10.33;;;24.70;1.00;;;;;;6266478;22;20774;-53
2022/09/06 10:09:59;;;;;;;12.10;11.20;;;24.60;1.00;;;;;;6270056;22;20356;-53
2022/09/06 10:12:29;;;;;;;12.10;11.30;;;24.90;1.00;;;;;;6269332;22;20501;-51
2022/09/06 10:14:55;;;;;;;12.80;11.67;;;25.20;1.00;;;;;;6271681;22;20848;-52
2022/09/06 10:17:31;;;;;;;11.77;10.77;;;25.40;1.00;;;;;;6271691;22;20431;-52
2022/09/06 10:20:00;;;;;;;11.43;10.53;;;25.60;1.00;;;;;;6271517;22;20363;-49
2022/09/06 10:22:29;;;;;;;11.57;10.77;;;25.90;1.00;;;;;;6271399;22;20407;-54
2022/09/06 10:25:04;;;;;;;11.50;10.80;;;26.30;1.00;;;;;;6271702;22;20814;-53
2022/09/06 10:27:32;;;;;;;13.57;12.27;;;26.40;1.00;;;;;;6270455;22;20387;-53
2022/09/06 10:30:03;;;;;;;12.13;11.23;;;26.80;99.90;;;;;;6270477;22;20385;-50
2022/09/06 10:32:53;;;;;;;12.57;11.77;;;27.10;99.90;;;;;;6271341;22;20410;-53
2022/09/06 10:35:22;;;;;;;11.77;10.93;;;27.00;99.90;;;;;;6270140;22;20414;-51
2022/09/06 10:38:02;;;;;;;11.23;10.53;;;27.30;99.90;;;;;;6269723;22;20383;-49
2022/09/06 10:40:47;;;;;;;11.53;10.83;;;27.20;99.90;;;;;;6273545;22;20399;-49
2022/09/06 10:43:19;;;;;;;12.40;11.50;;;27.10;99.90;;;;;;6273443;22;20363;-48
2022/09/06 10:46:01;;;;;;;13.57;12.53;;;26.80;99.90;;;;;;6273625;22;20369;-50
2022/09/06 10:48:36;;;;;;;12.37;11.57;;;27.00;99.90;;;;;;6273897;22;20364;-55
2022/09/06 10:51:20;;;;;;;12.23;11.40;;;27.00;99.90;;;;;;6273052;22;20489;-52
2022/09/06 10:54:00;;;;;;;12.17;11.47;;;27.30;99.90;;;;;;6272087;22;20363;-54
2022/09/06 10:56:31;;;;;;;12.63;11.70;;;27.50;99.90;;;;;;6272372;22;20424;-54
2022/09/06 10:59:26;;;;;;;12.87;12.07;;;27.80;99.90;;;;;;6273085;22;20841;-48
2022/09/06 11:02:07;;;;;;;11.20;10.40;;;27.70;99.90;;;;;;6273347;22;20390;-49
2022/09/06 11:04:39;;;;;;;11.77;10.97;;;27.80;99.90;;;;;;6272556;22;20371;-53
2022/09/06 11:07:23;;;;;;;12.10;11.30;;;27.90;99.90;;;;;;6273565;22;20367;-52
2022/09/06 11:10:00;;;;;;;11.67;10.87;;;28.90;99.90;;;;;;6273204;22;20412;-55
2022/09/06 11:12:44;;;;;;;11.33;10.63;;;30.30;99.90;;;;;;6273045;22;20410;-53
2022/09/06 11:15:12;;;;;;;11.73;11.00;;;31.80;99.90;;;;;;6273543;22;20888;-50
2022/09/06 11:17:42;;;;;;;12.10;11.30;;;32.90;99.90;;;;;;6273386;22;20426;-52
2022/09/06 11:20:25;;;;;;;13.00;12.20;;;33.90;99.90;;;;;;6273082;22;20375;-50
2022/09/06 11:23:05;;;;;;;12.30;11.70;;;34.20;99.90;;;;;;6273166;22;20368;-52
2022/09/06 11:25:48;;;;;;;12.13;11.43;;;33.90;99.90;;;;;;6273614;22;20355;-52
2022/09/06 11:28:28;;;;;;;12.90;12.20;;;33.70;99.90;;;;;;6272741;22;20366;-49
2022/09/06 11:30:56;;;;;;;13.17;12.47;;;33.10;99.90;;;;;;6272294;22;20446;-51
2022/09/06 11:33:38;;;;;;;13.13;12.33;;;32.90;99.90;;;;;;6273070;22;20445;-51
2022/09/06 11:36:32;;;;;;;13.13;12.33;;;33.50;99.90;;;;;;6271418;22;20584;-51
2022/09/06 11:39:00;;;;;;;13.03;12.23;;;34.20;99.90;;;;;;6273346;22;20356;-52
2022/09/06 11:41:32;;;;;;;13.07;12.40;;;34.80;99.90;;;;;;6272731;22;20386;-52
2022/09/06 11:43:58;;;;;;;13.40;12.50;;;35.10;99.90;;;;;;6272983;22;20453;-54
2022/09/06 11:46:33;;;;;;;11.80;11.00;;;35.20;99.90;;;;;;6272834;22;20370;-51
2022/09/06 11:49:07;;;;;;;11.30;10.70;;;35.80;99.90;;;;;;6272803;22;20373;-55
2022/09/06 11:51:43;;;;;;;11.57;10.97;;;35.80;99.90;;;;;;6272548;22;20415;-53
2022/09/06 11:54:26;;;;;;;11.90;11.20;;;35.60;99.90;;;;;;6272981;22;20358;-53
2022/09/06 11:57:15;;;;;;;11.27;10.67;;;35.90;99.90;;;;;;6272823;22;20844;-53
2022/09/06 11:59:47;;;;;;;11.40;10.80;;;36.20;99.90;;;;;;6272622;22;20837;-52
2022/09/06 12:02:29;;;;;;;11.83;11.00;;;36.20;99.90;;;;;;6271890;22;20368;-53
2022/09/06 12:04:59;;;;;;;11.97;11.27;;;36.00;99.90;;;;;;6272681;22;20688;-52
2022/09/06 12:07:28;;;;;;;11.73;11.03;;;35.60;99.90;;;;;;6272627;22;20356;-54
2022/09/06 12:09:54;;;;;;;11.60;10.97;;;35.00;99.90;;;;;;6272869;22;20363;-54
2022/09/06 12:12:39;;;;;;;11.70;10.97;;;35.00;99.90;;;;;;6272578;22;20429;-54
2022/09/06 12:15:28;;;;;;;12.20;11.50;;;35.20;99.90;;;;;;6272685;22;20478;-55
2022/09/06 12:17:55;;;;;;;11.73;11.13;;;34.80;99.90;;;;;;6272866;22;20423;-54
2022/09/06 12:20:46;;;;;;;12.60;11.90;;;34.40;99.90;;;;;;6272826;22;20374;-54
2022/09/06 12:23:34;;;;;;;12.20;11.40;;;33.90;99.90;;;;;;6258064;22;20389;-54
2022/09/06 12:26:08;;;;;;;11.97;11.37;;;33.40;99.90;;;;;;6271392;22;20855;-55
2022/09/06 12:28:42;;;;;;;11.80;11.00;;;33.30;99.90;;;;;;6272931;22;20371;-53
2022/09/06 12:31:28;;;;;;;11.60;10.90;;;33.10;99.90;;;;;;6272691;22;20563;-57
2022/09/06 12:33:55;;;;;;;12.63;11.93;;;32.70;99.90;;;;;;6272302;22;20454;-57
2022/09/06 12:36:29;;;;;;;11.90;11.20;;;32.30;99.90;;;;;;6271324;22;20387;-56
2022/09/06 12:39:01;;;;;;;12.07;11.27;;;32.00;99.90;;;;;;6272626;22;20359;-55
2022/09/06 12:41:29;;;;;;;12.33;11.63;;;31.50;99.90;;;;;;6273082;22;20366;-56
2022/09/06 12:43:58;;;;;;;12.80;12.00;;;31.30;99.90;;;;;;6273054;22;20471;-54